createdAt,value
2022-09-07T00:02:24.449Z,99192.69
2022-09-07T00:05:26.726Z,99192.22
2022-09-07T00:08:29.063Z,99194.31
2022-09-07T00:11:31.058Z,99194.31
2022-09-07T00:14:33.948Z,99195.34
2022-09-07T00:17:36.292Z,99187.06
2022-09-07T00:20:38.132Z,99191.44
2022-09-07T00:23:40.776Z,99188.16
2022-09-07T00:26:42.618Z,99178.66
2022-09-07T00:29:44.719Z,99171.59
2022-09-07T00:32:46.612Z,99172.63
2022-09-07T00:35:48.559Z,99176.78
2022-09-07T00:38:50.757Z,99169.97
2022-09-07T00:41:52.804Z,99168.34
2022-09-07T00:45:03.580Z,99161.94
2022-09-07T00:48:13.667Z,99159.69
2022-09-07T00:51:24.754Z,99159.69
2022-09-07T00:54:34.318Z,99165.53
2022-09-07T00:57:37.776Z,99166.75
2022-09-07T01:00:46.342Z,99163.88
2022-09-07T01:03:51.668Z,99160.56
2022-09-07T01:06:55.172Z,99151.69
2022-09-07T01:09:57.469Z,99157.72
2022-09-07T01:13:00.361Z,99158.13
2022-09-07T01:16:39.094Z,99150.25
2022-09-07T01:20:18.595Z,99147.16
2022-09-07T01:23:52.766Z,99153.16
2022-09-07T01:27:06.618Z,99152.75
2022-09-07T01:30:19.764Z,99146.78
2022-09-07T01:33:36.830Z,99150.66
2022-09-07T01:37:03.255Z,99152.16
2022-09-07T01:40:23.002Z,99157.09
2022-09-07T01:43:52.692Z,99171.78
2022-09-07T01:47:18.804Z,99167.44
2022-09-07T01:50:42.828Z,99168.28
2022-09-07T01:53:51.752Z,99157.09
2022-09-07T01:56:58.534Z,99161.84
2022-09-07T02:00:13.179Z,99158.16
2022-09-07T02:03:25.641Z,99160.19
2022-09-07T02:06:51.869Z,99152.97
2022-09-07T02:10:17.539Z,99150.47
2022-09-07T02:13:46.333Z,99153.38
2022-09-07T02:16:56.409Z,99144.88
2022-09-07T02:20:22.200Z,99141.97
2022-09-07T02:23:44.607Z,99141.97
2022-09-07T02:26:49.726Z,99135.16
2022-09-07T02:29:52.184Z,99127.50
2022-09-07T02:32:56.199Z,99128.34
2022-09-07T02:35:58.542Z,99115.94
2022-09-07T02:39:00.337Z,99110.56
2022-09-07T02:42:02.407Z,99114.72
2022-09-07T02:45:07.988Z,99111.38
2022-09-07T02:48:41.631Z,99116.75
2022-09-07T02:52:20.013Z,99118.63
2022-09-07T02:56:00.372Z,99122.34
2022-09-07T02:59:23.909Z,99117.19
2022-09-07T03:02:39.901Z,99120.50
2022-09-07T03:05:48.990Z,99122.13
2022-09-07T03:08:55.421Z,99126.41
2022-09-07T03:11:57.728Z,99129.13
2022-09-07T03:14:59.527Z,99124.34
2022-09-07T03:18:01.334Z,99125.00
2022-09-07T03:21:03.211Z,99127.25
2022-09-07T03:24:05.724Z,99128.41
2022-09-07T03:27:07.595Z,99128.84
2022-09-07T03:30:11.165Z,99127.81
2022-09-07T03:33:15.897Z,99130.50
2022-09-07T03:36:17.838Z,99133.19
2022-09-07T03:39:22.677Z,99129.88
2022-09-07T03:42:24.603Z,99120.34
2022-09-07T03:45:26.459Z,99118.28
2022-09-07T03:48:33.262Z,99128.19
2022-09-07T03:51:35.110Z,99124.47
2022-09-07T03:54:39.617Z,99126.31
2022-09-07T03:57:42.889Z,99146.97
2022-09-07T04:00:44.619Z,99150.91
2022-09-07T04:03:46.670Z,99142.44
2022-09-07T04:06:48.628Z,99152.13
2022-09-07T04:09:51.466Z,99148.00
2022-09-07T04:12:53.285Z,99145.53
2022-09-07T04:15:55.691Z,99155.84
2022-09-07T04:18:59.276Z,99158.97
2022-09-07T04:22:01.285Z,99163.31
2022-09-07T04:25:03.244Z,99149.66
2022-09-07T04:28:05.223Z,99157.94
2022-09-07T04:31:07.038Z,99153.88
2022-09-07T04:34:10.307Z,99164.22
2022-09-07T04:37:12.601Z,99157.22
2022-09-07T04:40:14.456Z,99168.38
2022-09-07T04:43:16.294Z,99171.91
2022-09-07T04:46:21.900Z,99175.03
2022-09-07T04:49:23.841Z,99171.53
2022-09-07T04:52:25.652Z,99164.72
2022-09-07T04:55:27.586Z,99159.34
2022-09-07T04:58:30.280Z,99164.53
2022-09-07T05:01:32.404Z,99167.22
2022-09-07T05:04:37.427Z,99167.63
2022-09-07T05:07:39.268Z,99173.84
2022-09-07T05:10:51.241Z,99176.38
2022-09-07T05:13:55.336Z,99177.16
2022-09-07T05:16:57.375Z,99178.78
2022-09-07T05:19:59.387Z,99167.19
2022-09-07T05:23:01.176Z,99169.19
2022-09-07T05:26:04.071Z,99175.78
2022-09-07T05:32:29.399Z,99183.97
2022-09-07T05:35:31.762Z,99191.63
2022-09-07T05:38:37.035Z,99192.69
2022-09-07T05:41:39.027Z,99199.66
2022-09-07T05:47:49.303Z,99201.47
2022-09-07T05:50:52.747Z,99206.50
2022-09-07T05:53:56.364Z,99206.53
2022-09-07T05:56:58.451Z,99204.63
2022-09-07T06:00:00.248Z,99211.09
2022-09-07T06:03:02.209Z,99205.69
2022-09-07T06:06:08.941Z,99206.41
2022-09-07T06:09:12.697Z,99209.28
2022-09-07T06:12:14.428Z,99205.25
2022-09-07T06:15:16.375Z,99201.25
2022-09-07T06:18:18.852Z,99207.53
2022-09-07T06:21:23.085Z,99200.97
2022-09-07T06:24:24.869Z,99198.53
2022-09-07T06:27:26.826Z,99201.69
2022-09-07T06:30:29.552Z,99197.50
2022-09-07T06:33:31.367Z,99203.53
2022-09-07T06:36:33.964Z,99200.19
2022-09-07T06:39:36.493Z,99190.88
2022-09-07T06:42:39.215Z,99193.44
2022-09-07T06:45:41.110Z,99190.06
2022-09-07T06:48:44.476Z,99191.56
2022-09-07T06:51:46.631Z,99182.94
2022-09-07T06:55:03.894Z,99191.41
2022-09-07T06:58:05.813Z,99178.28
2022-09-07T07:01:16.327Z,99188.91
2022-09-07T07:04:18.332Z,99187.81
2022-09-07T07:07:20.184Z,99184.75
2022-09-07T07:10:24.808Z,99190.75
2022-09-07T07:13:27.476Z,99193.31
2022-09-07T07:16:29.608Z,99185.13
2022-09-07T07:19:31.513Z,99190.22
2022-09-07T07:22:48.684Z,99188.03
2022-09-07T07:25:50.572Z,99191.84
2022-09-07T07:29:03.557Z,99191.16
2022-09-07T07:32:06.244Z,99191.22
2022-09-07T07:35:08.968Z,99185.19
2022-09-07T07:48:17.306Z,99196.69
2022-09-07T07:51:20.092Z,99185.59
2022-09-07T07:54:22.141Z,99179.34
2022-09-07T07:57:24.136Z,99179.78
2022-09-07T08:00:37.748Z,99180.03
2022-09-07T08:03:47.949Z,99188.75
2022-09-07T08:06:49.752Z,99191.81
2022-09-07T08:09:51.828Z,99183.19
2022-09-07T08:12:53.623Z,99186.56
2022-09-07T08:15:59.441Z,99188.00
2022-09-07T08:22:04.025Z,99190.81
2022-09-07T08:25:09.056Z,99180.13
2022-09-07T08:28:10.822Z,99179.88
2022-09-07T08:31:15.013Z,99175.66
2022-09-07T08:34:17.052Z,99170.66
2022-09-07T08:37:18.848Z,99163.03
2022-09-07T08:40:20.865Z,99159.44
2022-09-07T08:44:00.367Z,99158.16
2022-09-07T08:47:12.638Z,99153.25
2022-09-07T08:50:15.116Z,99153.25
2022-09-07T08:53:19.858Z,99158.88
2022-09-07T08:56:33.659Z,99158.00
2022-09-07T08:59:41.604Z,99159.53
2022-09-07T09:02:45.038Z,99149.38
2022-09-07T09:06:01.191Z,99150.69
2022-09-07T09:09:30.824Z,99150.06
2022-09-07T09:12:41.284Z,99143.63
2022-09-07T09:15:53.242Z,99132.66
2022-09-07T09:19:15.589Z,99133.81
2022-09-07T09:22:28.348Z,99125.50
2022-09-07T09:25:33.894Z,99127.69
2022-09-07T09:28:35.922Z,99129.19
2022-09-07T09:31:37.935Z,99134.47
2022-09-07T09:34:39.893Z,99132.28
2022-09-07T09:37:43.061Z,99120.41
2022-09-07T09:40:52.793Z,99114.31
2022-09-07T09:43:56.255Z,99110.88
2022-09-07T09:54:18.563Z,99101.75
2022-09-07T09:59:04.733Z,99098.78
2022-09-07T10:01:26.385Z,99093.03
2022-09-07T10:04:35.179Z,99094.97
2022-09-07T10:07:37.037Z,99088.69
2022-09-07T10:10:54.149Z,99088.16
2022-09-07T10:13:57.892Z,99084.28
2022-09-07T10:17:02.121Z,99070.59
2022-09-07T10:20:13.073Z,99071.34
2022-09-07T10:23:23.858Z,99075.69
2022-09-07T10:26:34.993Z,99072.00
2022-09-07T10:29:37.288Z,99071.91
2022-09-07T10:32:51.020Z,99076.66
2022-09-07T10:36:08.037Z,99082.03
2022-09-07T10:39:17.586Z,99072.72
2022-09-07T10:42:29.074Z,99073.94
2022-09-07T10:45:59.259Z,99075.22
2022-09-07T10:49:27.426Z,99073.50
2022-09-07T10:52:48.833Z,99056.00
2022-09-07T10:56:31.027Z,99068.25
2022-09-07T11:03:26.950Z,99057.47
2022-09-07T11:06:55.199Z,99046.81
2022-09-07T11:10:13.149Z,99043.72
2022-09-07T11:13:22.224Z,99038.94
2022-09-07T11:20:22.092Z,99035.69
2022-09-07T11:23:29.684Z,99029.88
2022-09-07T11:26:56.223Z,99027.94
2022-09-07T11:30:23.666Z,99018.41
2022-09-07T11:37:21.113Z,99004.78
2022-09-07T11:40:29.912Z,99009.59
2022-09-07T11:43:38.211Z,99007.78
2022-09-07T11:46:55.842Z,98993.72
2022-09-07T11:49:59.529Z,98996.22
2022-09-07T11:53:09.543Z,98988.81
2022-09-07T11:56:16.907Z,98995.56
2022-09-07T11:59:37.127Z,98983.50
2022-09-07T12:02:59.918Z,98984.25
2022-09-07T12:06:08.244Z,98986.97
2022-09-07T12:09:46.604Z,98986.97
2022-09-07T12:12:58.977Z,98984.19
2022-09-07T12:16:23.233Z,98990.09
2022-09-07T12:19:27.057Z,98981.03
2022-09-07T12:22:28.831Z,98982.41
2022-09-07T12:25:32.261Z,98981.78
2022-09-07T12:28:34.195Z,98976.66
2022-09-07T12:31:57.535Z,98968.25
2022-09-07T12:35:00.972Z,98965.28
2022-09-07T12:38:13.854Z,98962.03
2022-09-07T12:41:40.709Z,98956.53
2022-09-07T12:44:42.541Z,98948.19
2022-09-07T12:47:56.075Z,98951.97
2022-09-07T12:55:26.484Z,98956.25
2022-09-07T12:58:30.809Z,98954.38
2022-09-07T13:01:51.806Z,98943.47
2022-09-07T13:05:06.362Z,98945.56
2022-09-07T13:08:09.372Z,98935.19
2022-09-07T13:11:31.712Z,98927.66
2022-09-07T13:14:38.522Z,98935.16
2022-09-07T13:17:43.391Z,98925.03
2022-09-07T13:20:46.675Z,98927.97
2022-09-07T13:27:44.159Z,98930.41
2022-09-07T13:31:30.050Z,98936.63
2022-09-07T13:34:34.808Z,98943.69
2022-09-07T13:37:59.083Z,98937.91
2022-09-07T13:41:13.412Z,98928.63
2022-09-07T13:44:25.954Z,98929.94
2022-09-07T13:47:37.907Z,98944.34
2022-09-07T13:51:10.433Z,98939.25
2022-09-07T13:54:45.680Z,98945.06
2022-09-07T13:58:04.687Z,98950.06
2022-09-07T14:01:19.011Z,98943.00
2022-09-07T14:04:28.863Z,98946.63
2022-09-07T14:07:31.724Z,98945.31
2022-09-07T14:10:33.745Z,98943.53
2022-09-07T14:13:35.497Z,98936.94
2022-09-07T14:16:38.088Z,98934.34
2022-09-07T14:19:45.100Z,98927.16
2022-09-07T14:22:51.983Z,98922.75
2022-09-07T14:26:17.461Z,98921.84
2022-09-07T14:29:24.531Z,98915.75
2022-09-07T14:32:27.315Z,98923.97
2022-09-07T14:35:33.691Z,98920.19
2022-09-07T14:42:03.870Z,98929.22
2022-09-07T14:45:31.460Z,98924.41
2022-09-07T14:48:35.370Z,98933.41
2022-09-07T14:51:42.805Z,98938.66
2022-09-07T14:54:51.872Z,98944.16
2022-09-07T14:58:15.034Z,98944.44
2022-09-07T15:04:42.800Z,98957.50
2022-09-07T15:07:50.363Z,98955.00
2022-09-07T15:11:35.148Z,98953.22
2022-09-07T15:14:39.954Z,98946.09
2022-09-07T15:17:43.264Z,98945.19
2022-09-07T15:20:45.657Z,98943.03
2022-09-07T15:23:55.512Z,98937.06
2022-09-07T15:27:04.518Z,98927.56
2022-09-07T15:30:06.854Z,98926.25
2022-09-07T15:33:09.033Z,98938.03
2022-09-07T15:36:13.278Z,98942.03
2022-09-07T15:39:17.161Z,98939.91
2022-09-07T15:45:41.390Z,98946.22
2022-09-07T15:48:54.775Z,98943.47
2022-09-07T15:52:05.054Z,98941.88
2022-09-07T15:55:08.764Z,98926.06
2022-09-07T15:58:13.714Z,98925.50
2022-09-07T16:04:38.778Z,98919.59
2022-09-07T16:11:35.302Z,98914.06
2022-09-07T16:14:37.202Z,98921.47
2022-09-07T16:17:47.201Z,98923.25
2022-09-07T16:20:52.721Z,98928.47
2022-09-07T16:23:55.077Z,98924.97
2022-09-07T16:26:56.924Z,98921.97
2022-09-07T16:29:59.533Z,98918.44
2022-09-07T16:33:01.432Z,98912.69
2022-09-07T16:36:15.988Z,98900.69
2022-09-07T16:39:18.257Z,98896.59
2022-09-07T16:42:21.690Z,98884.06
2022-09-07T16:48:52.325Z,98878.34
2022-09-07T16:51:54.460Z,98873.44
2022-09-07T16:54:56.223Z,98876.41
2022-09-07T17:01:22.486Z,98863.56
2022-09-07T17:04:24.522Z,98870.66
2022-09-07T17:07:26.250Z,98876.06
2022-09-07T17:10:28.773Z,98868.41
2022-09-07T17:13:32.171Z,98877.63
2022-09-07T17:16:37.543Z,98880.91
2022-09-07T17:19:39.520Z,98886.00
2022-09-07T17:22:41.460Z,98879.19
2022-09-07T17:25:43.187Z,98880.47
2022-09-07T17:28:48.815Z,98886.72
2022-09-07T17:35:12.049Z,98885.25
2022-09-07T17:41:35.703Z,98897.13
2022-09-07T17:44:38.475Z,98893.53
2022-09-07T17:47:40.342Z,98888.06
2022-09-07T17:50:42.578Z,98896.44
2022-09-07T17:53:45.654Z,98893.16
2022-09-07T17:56:47.705Z,98908.56
2022-09-07T18:03:12.863Z,98908.44
2022-09-07T18:06:15.069Z,98901.88
2022-09-07T18:09:17.404Z,98910.25
2022-09-07T18:12:19.124Z,98907.22
2022-09-07T18:15:22.214Z,98898.19
2022-09-07T18:18:24.022Z,98905.72
2022-09-07T18:21:28.354Z,98913.00
2022-09-07T18:24:30.299Z,98919.19
2022-09-07T18:27:32.101Z,98920.50
2022-09-07T18:30:42.243Z,98915.81
2022-09-07T18:33:43.946Z,98916.00
2022-09-07T18:36:45.734Z,98911.59
2022-09-07T18:39:48.807Z,98906.34
2022-09-07T18:42:52.299Z,98907.03
2022-09-07T18:46:01.247Z,98915.06
2022-09-07T18:49:03.078Z,98921.28
2022-09-07T18:55:27.502Z,98921.38
2022-09-07T18:58:29.733Z,98916.47
2022-09-07T19:01:32.137Z,98924.78
2022-09-07T19:07:55.944Z,98917.16
2022-09-07T19:11:04.703Z,98911.78
2022-09-07T19:14:06.681Z,98910.16
2022-09-07T19:17:08.499Z,98910.66
2022-09-07T19:20:10.573Z,98918.16
2022-09-07T19:23:12.284Z,98916.50
2022-09-07T19:26:14.077Z,98916.41
2022-09-07T19:29:18.048Z,98939.00
2022-09-07T19:32:20.392Z,98937.63
2022-09-07T19:35:22.179Z,98929.50
2022-09-07T19:38:24.045Z,98928.34
2022-09-07T19:41:25.960Z,98929.59
2022-09-07T19:44:27.992Z,98919.72
2022-09-07T19:47:29.747Z,98927.69
2022-09-07T19:50:32.407Z,98919.25
2022-09-07T19:53:35.845Z,98917.53
2022-09-07T19:56:39.088Z,98913.34
2022-09-07T19:59:40.849Z,98916.22
2022-09-07T20:02:42.641Z,98910.72
2022-09-07T20:05:44.412Z,98907.31
2022-09-07T20:08:46.827Z,98908.28
2022-09-07T20:11:48.657Z,98907.97
2022-09-07T20:14:50.481Z,98897.28
2022-09-07T20:17:54.055Z,98900.72
2022-09-07T20:20:57.269Z,98903.56
2022-09-07T20:23:59.153Z,98905.38
2022-09-07T20:27:02.788Z,98907.63
2022-09-07T20:30:05.328Z,98905.09
2022-09-07T20:33:07.232Z,98893.69
2022-09-07T20:36:11.338Z,98889.22
2022-09-07T20:39:16.570Z,98898.91
2022-09-07T20:42:19.006Z,98881.16
2022-09-07T20:45:20.986Z,98882.13
2022-09-07T20:48:22.839Z,98889.91
2022-09-07T20:51:24.945Z,98890.03
2022-09-07T20:54:26.737Z,98887.81
2022-09-07T20:57:28.731Z,98876.13
2022-09-07T21:00:31.044Z,98872.03
2022-09-07T21:03:32.920Z,98871.78
2022-09-07T21:06:34.926Z,98870.50
2022-09-07T21:09:36.635Z,98876.66
2022-09-07T21:12:38.295Z,98876.00
2022-09-07T21:15:44.403Z,98884.94
2022-09-07T21:18:46.223Z,98885.97
2022-09-07T21:21:47.994Z,98882.13
2022-09-07T21:24:49.659Z,98886.00
2022-09-07T21:27:51.663Z,98880.47
2022-09-07T21:31:01.310Z,98875.69
2022-09-07T21:34:03.148Z,98875.88
2022-09-07T21:37:04.867Z,98874.25
2022-09-07T21:40:07.498Z,98859.69
2022-09-07T21:43:09.287Z,98861.44
2022-09-07T21:46:17.290Z,98857.34
2022-09-07T21:49:19.034Z,98856.75
2022-09-07T21:52:20.737Z,98858.50
2022-09-07T21:55:22.474Z,98859.69
2022-09-07T21:58:25.127Z,98857.91
2022-09-07T22:01:28.971Z,98859.31
2022-09-07T22:04:31.176Z,98859.06
2022-09-07T22:07:33.117Z,98867.84
2022-09-07T22:10:35.130Z,98869.13
2022-09-07T22:13:37.775Z,98863.16
2022-09-07T22:16:39.824Z,98859.75
2022-09-07T22:19:41.625Z,98857.75
2022-09-07T22:22:43.714Z,98856.19
2022-09-07T22:25:53.233Z,98844.91
2022-09-07T22:28:55.723Z,98857.31
2022-09-07T22:31:57.521Z,98859.38
2022-09-07T22:34:59.744Z,98861.25
2022-09-07T22:38:01.462Z,98856.91
2022-09-07T22:41:11.598Z,98865.66
2022-09-07T22:44:16.075Z,98864.47
2022-09-07T22:47:17.799Z,98846.84
2022-09-07T22:50:20.377Z,98829.50
2022-09-07T22:53:22.836Z,98825.56
2022-09-07T22:56:31.327Z,98824.72
2022-09-07T22:59:33.338Z,98824.78
2022-09-07T23:02:35.166Z,98825.00
2022-09-07T23:05:37.812Z,98812.19
2022-09-07T23:08:39.927Z,98801.84
2022-09-07T23:11:42.312Z,98803.16
2022-09-07T23:14:43.991Z,98792.44
2022-09-07T23:17:45.798Z,98790.22
2022-09-07T23:20:47.663Z,98776.25
2022-09-07T23:23:54.648Z,98770.88
2022-09-07T23:26:56.429Z,98772.41
2022-09-07T23:29:58.189Z,98778.66
2022-09-07T23:33:00.143Z,98773.75
2022-09-07T23:36:04.446Z,98764.22
2022-09-07T23:39:09.135Z,98766.72
2022-09-07T23:42:11.071Z,98764.47
2022-09-07T23:45:13.473Z,98758.69
2022-09-07T23:48:15.496Z,98759.88
2022-09-07T23:51:23.050Z,98763.84
2022-09-07T23:54:26.249Z,98747.75
2022-09-07T23:57:28.111Z,98744.25
